createdAt,value
2017-07-27T00:00:21.804Z,0
2017-07-27T00:01:31.759Z,0
2017-07-27T00:02:41.404Z,0
2017-07-27T00:03:51.362Z,0
2017-07-27T00:05:01.009Z,0
2017-07-27T00:06:11.284Z,0
2017-07-27T00:07:21.555Z,0
2017-07-27T00:08:31.195Z,0
2017-07-27T00:09:41.468Z,0
2017-07-27T00:10:51.748Z,0
2017-07-27T00:12:02.022Z,0
2017-07-27T00:13:11.979Z,0
2017-07-27T00:14:22.249Z,0
2017-07-27T00:15:31.902Z,0
2017-07-27T00:16:42.172Z,0
2017-07-27T00:17:52.446Z,0
2017-07-27T00:19:02.729Z,0
2017-07-27T00:20:12.691Z,0
2017-07-27T00:21:22.963Z,0
2017-07-27T00:22:33.230Z,0
2017-07-27T00:23:43.509Z,0
2017-07-27T00:24:53.470Z,0
2017-07-27T00:26:03.743Z,0
2017-07-27T00:27:14.023Z,0
2017-07-27T00:28:23.980Z,0
2017-07-27T00:29:34.251Z,0
2017-07-27T00:30:44.527Z,0
2017-07-27T00:31:54.490Z,0
2017-07-27T00:33:06.760Z,0
2017-07-27T00:34:16.718Z,0
2017-07-27T00:35:26.995Z,0
2017-07-27T00:36:36.965Z,0
2017-07-27T00:37:46.922Z,0
2017-07-27T00:38:56.884Z,0
2017-07-27T00:40:07.172Z,0
2017-07-27T00:41:16.818Z,0
2017-07-27T00:42:27.088Z,0
2017-07-27T00:43:36.727Z,0
2017-07-27T00:44:46.999Z,0
2017-07-27T00:45:57.284Z,0
2017-07-27T00:47:07.242Z,0
2017-07-27T00:48:17.534Z,0
2017-07-27T00:49:27.805Z,0
2017-07-27T00:50:38.082Z,0
2017-07-27T00:51:48.043Z,0
2017-07-27T00:52:58.308Z,0
2017-07-27T00:54:08.576Z,0
2017-07-27T00:55:18.537Z,0
2017-07-27T00:56:28.820Z,0
2017-07-27T00:57:38.778Z,0
2017-07-27T00:58:49.050Z,0
2017-07-27T00:59:59.005Z,0
2017-07-27T01:01:09.285Z,0
2017-07-27T01:02:19.244Z,0
2017-07-27T01:03:29.518Z,0
2017-07-27T01:04:39.792Z,0
2017-07-27T01:05:49.748Z,0
2017-07-27T01:06:59.710Z,0
2017-07-27T01:08:09.674Z,0
2017-07-27T01:09:19.318Z,0
2017-07-27T01:10:29.586Z,0
2017-07-27T01:11:39.861Z,0
2017-07-27T01:12:49.832Z,0
2017-07-27T01:14:00.099Z,0
2017-07-27T01:15:09.743Z,0
2017-07-27T01:16:20.013Z,0
2017-07-27T01:17:30.284Z,0
2017-07-27T01:18:40.253Z,0
2017-07-27T01:19:50.543Z,0
2017-07-27T01:21:00.821Z,0
2017-07-27T01:22:10.777Z,0
2017-07-27T01:23:21.046Z,0
2017-07-27T01:24:31.327Z,0
2017-07-27T01:25:41.284Z,0
2017-07-27T01:26:51.242Z,0
2017-07-27T01:28:01.515Z,0
2017-07-27T01:29:11.782Z,0
2017-07-27T01:30:22.053Z,0
2017-07-27T01:31:32.333Z,0
2017-07-27T01:32:42.603Z,0
2017-07-27T01:33:52.877Z,0
2017-07-27T01:35:02.834Z,0
2017-07-27T01:36:12.794Z,0
2017-07-27T01:37:23.063Z,0
2017-07-27T01:38:33.334Z,0
2017-07-27T01:39:43.284Z,0
2017-07-27T01:40:53.558Z,0
2017-07-27T01:42:03.852Z,0
2017-07-27T01:43:14.130Z,0
2017-07-27T01:44:24.414Z,0
2017-07-27T01:45:34.364Z,0
2017-07-27T01:46:43.692Z,0
2017-07-27T01:47:53.969Z,0
2017-07-27T01:49:03.931Z,0
2017-07-27T01:50:13.576Z,0
2017-07-27T01:51:23.530Z,0
2017-07-27T01:52:33.803Z,0
2017-07-27T01:53:44.072Z,0
2017-07-27T01:54:54.342Z,0
2017-07-27T01:56:04.300Z,0
2017-07-27T01:57:14.581Z,0
2017-07-27T01:58:24.852Z,0
2017-07-27T01:59:34.819Z,0
2017-07-27T02:00:45.089Z,0
2017-07-27T02:01:55.053Z,0
2017-07-27T02:03:05.017Z,0
2017-07-27T02:04:15.289Z,0
2017-07-27T02:05:25.559Z,0
2017-07-27T02:06:35.895Z,0
2017-07-27T02:07:46.168Z,0
2017-07-27T02:08:55.808Z,0
2017-07-27T02:10:06.080Z,0
2017-07-27T02:11:16.356Z,0
2017-07-27T02:12:26.896Z,0
2017-07-27T02:13:36.851Z,0
2017-07-27T02:14:47.125Z,0
2017-07-27T02:15:57.395Z,0
2017-07-27T02:17:07.667Z,0
2017-07-27T02:18:19.464Z,0
2017-07-27T02:19:29.740Z,0
2017-07-27T02:20:40.011Z,0
2017-07-27T02:21:49.970Z,0
2017-07-27T02:22:59.933Z,0
2017-07-27T02:24:10.203Z,0
2017-07-27T02:25:20.160Z,0
2017-07-27T02:26:30.120Z,0
2017-07-27T02:27:40.082Z,0
2017-07-27T02:28:50.360Z,0
2017-07-27T02:30:00.323Z,0
2017-07-27T02:31:10.601Z,0
2017-07-27T02:32:20.894Z,0
2017-07-27T02:33:31.198Z,0
2017-07-27T02:34:40.847Z,0
2017-07-27T02:35:50.802Z,0
2017-07-27T02:37:00.780Z,0
2017-07-27T02:38:11.050Z,0
2017-07-27T02:39:21.336Z,0
2017-07-27T02:40:31.616Z,0
2017-07-27T02:41:41.578Z,0
2017-07-27T02:42:51.540Z,0
2017-07-27T02:44:01.833Z,0
2017-07-27T02:45:11.798Z,0
2017-07-27T02:46:21.757Z,0
2017-07-27T02:47:32.027Z,0
2017-07-27T02:48:41.667Z,0
2017-07-27T02:49:51.938Z,0
2017-07-27T02:51:02.218Z,0
2017-07-27T02:52:12.174Z,0
2017-07-27T02:53:21.814Z,0
2017-07-27T02:54:32.103Z,0
2017-07-27T02:55:41.750Z,5
2017-07-27T02:56:52.016Z,5
2017-07-27T02:58:02.294Z,5
2017-07-27T02:59:14.250Z,5
2017-07-27T03:00:24.213Z,5
2017-07-27T03:01:34.166Z,5
2017-07-27T03:02:44.457Z,5
2017-07-27T03:03:54.727Z,5
2017-07-27T03:05:04.682Z,5
2017-07-27T03:06:14.640Z,5
2017-07-27T03:07:24.596Z,5
2017-07-27T03:08:34.872Z,10
2017-07-27T03:09:45.141Z,10
2017-07-27T03:10:55.416Z,10
2017-07-27T03:12:05.689Z,10
2017-07-27T03:13:15.961Z,10
2017-07-27T03:14:26.246Z,10
2017-07-27T03:15:36.518Z,10
2017-07-27T03:16:46.475Z,10
2017-07-27T03:17:56.430Z,10
2017-07-27T03:19:06.699Z,10
2017-07-27T03:20:16.973Z,10
2017-07-27T03:21:26.932Z,10
2017-07-27T03:22:37.206Z,10
2017-07-27T03:23:47.156Z,10
2017-07-27T03:24:57.425Z,15
2017-07-27T03:26:07.098Z,15
2017-07-27T03:27:17.364Z,15
2017-07-27T03:28:27.634Z,15
2017-07-27T03:29:37.908Z,15
2017-07-27T03:30:48.202Z,20
2017-07-27T03:31:58.498Z,20
2017-07-27T03:33:08.455Z,20
2017-07-27T03:34:18.412Z,15
2017-07-27T03:35:28.370Z,15
2017-07-27T03:36:38.328Z,15
2017-07-27T03:37:48.603Z,20
2017-07-27T03:38:57.935Z,20
2017-07-27T03:40:08.212Z,20
2017-07-27T03:41:18.491Z,20
2017-07-27T03:42:28.768Z,25
2017-07-27T03:43:39.036Z,20
2017-07-27T03:44:48.993Z,20
2017-07-27T03:45:59.264Z,20
2017-07-27T03:47:09.534Z,25
2017-07-27T03:48:19.812Z,25
2017-07-27T03:49:30.083Z,25
2017-07-27T03:50:40.354Z,25
2017-07-27T03:51:49.995Z,25
2017-07-27T03:52:59.956Z,25
2017-07-27T03:54:09.611Z,25
2017-07-27T03:55:19.575Z,25
2017-07-27T03:56:29.854Z,25
2017-07-27T03:57:39.811Z,25
2017-07-27T03:58:50.080Z,30
2017-07-27T03:59:59.741Z,30
2017-07-27T04:01:10.015Z,35
2017-07-27T04:02:19.970Z,35
2017-07-27T04:03:29.929Z,35
2017-07-27T04:04:40.225Z,35
2017-07-27T04:05:50.178Z,35
2017-07-27T04:07:00.451Z,35
2017-07-27T04:08:10.406Z,40
2017-07-27T04:09:20.705Z,40
2017-07-27T04:10:30.662Z,40
2017-07-27T04:11:40.642Z,40
2017-07-27T04:12:50.909Z,45
2017-07-27T04:14:01.181Z,45
2017-07-27T04:15:11.459Z,45
2017-07-27T04:16:21.734Z,45
2017-07-27T04:17:32.004Z,45
2017-07-27T04:18:41.960Z,50
2017-07-27T04:19:52.235Z,50
2017-07-27T04:21:01.881Z,50
2017-07-27T04:22:12.171Z,50
2017-07-27T04:23:22.131Z,50
2017-07-27T04:24:32.402Z,55
2017-07-27T04:25:42.371Z,55
2017-07-27T04:26:52.647Z,55
2017-07-27T04:28:02.603Z,55
2017-07-27T04:29:12.568Z,55
2017-07-27T04:30:22.531Z,55
2017-07-27T04:31:32.799Z,55
2017-07-27T04:32:43.068Z,60
2017-07-27T04:33:53.338Z,60
2017-07-27T04:35:03.293Z,60
2017-07-27T04:36:13.255Z,60
2017-07-27T04:37:23.530Z,60
2017-07-27T04:38:33.807Z,60
2017-07-27T04:39:44.079Z,60
2017-07-27T04:40:54.044Z,60
2017-07-27T04:42:04.000Z,60
2017-07-27T04:43:14.274Z,55
2017-07-27T04:44:24.542Z,55
2017-07-27T04:45:34.504Z,50
2017-07-27T04:46:44.774Z,45
2017-07-27T04:47:55.045Z,45
2017-07-27T04:49:04.683Z,45
2017-07-27T04:50:14.660Z,45
2017-07-27T04:51:24.618Z,45
2017-07-27T04:52:34.577Z,40
2017-07-27T04:53:44.537Z,40
2017-07-27T04:54:54.811Z,40
2017-07-27T04:56:05.076Z,40
2017-07-27T04:57:15.034Z,35
2017-07-27T04:58:24.992Z,35
2017-07-27T04:59:34.955Z,35
2017-07-27T05:00:44.913Z,35
2017-07-27T05:01:55.184Z,35
2017-07-27T05:03:05.145Z,40
2017-07-27T05:04:14.788Z,40
2017-07-27T05:05:25.063Z,45
2017-07-27T05:06:35.346Z,45
2017-07-27T05:07:45.618Z,45
2017-07-27T05:08:55.896Z,45
2017-07-27T05:10:06.182Z,45
2017-07-27T05:11:16.456Z,45
2017-07-27T05:12:26.424Z,45
2017-07-27T05:13:36.717Z,50
2017-07-27T05:14:46.674Z,55
2017-07-27T05:15:56.953Z,60
2017-07-27T05:17:07.222Z,65
2017-07-27T05:18:17.497Z,75
2017-07-27T05:19:27.769Z,90
2017-07-27T05:20:38.039Z,105
2017-07-27T05:21:48.315Z,115
2017-07-27T05:22:58.583Z,110
2017-07-27T05:24:08.852Z,110
2017-07-27T05:25:18.810Z,105
2017-07-27T05:26:29.099Z,95
2017-07-27T05:27:39.061Z,85
2017-07-27T05:28:49.020Z,75
2017-07-27T05:29:58.976Z,70
2017-07-27T05:31:09.255Z,75
2017-07-27T05:32:19.527Z,80
2017-07-27T05:33:29.497Z,90
2017-07-27T05:34:39.451Z,95
2017-07-27T05:35:49.727Z,100
2017-07-27T05:36:59.712Z,105
2017-07-27T05:38:09.673Z,105
2017-07-27T05:39:19.312Z,105
2017-07-27T05:40:29.582Z,110
2017-07-27T05:41:39.561Z,115
2017-07-27T05:42:49.522Z,120
2017-07-27T05:43:59.800Z,120
2017-07-27T05:45:10.077Z,125
2017-07-27T05:46:19.717Z,125
2017-07-27T05:47:29.675Z,120
2017-07-27T05:48:39.632Z,125
2017-07-27T05:49:49.906Z,125
2017-07-27T05:51:00.177Z,125
2017-07-27T05:52:09.822Z,120
2017-07-27T05:53:20.091Z,120
2017-07-27T05:54:30.363Z,125
2017-07-27T05:55:40.638Z,130
2017-07-27T05:56:50.909Z,140
2017-07-27T05:58:00.551Z,145
2017-07-27T05:59:10.824Z,145
2017-07-27T06:00:21.104Z,140
2017-07-27T06:01:30.751Z,135
2017-07-27T06:02:41.028Z,135
2017-07-27T06:03:51.000Z,135
2017-07-27T06:05:00.962Z,130
2017-07-27T06:06:10.916Z,125
2017-07-27T06:07:20.874Z,135
2017-07-27T06:08:30.521Z,130
2017-07-27T06:09:40.796Z,125
2017-07-27T06:10:50.758Z,120
2017-07-27T06:12:01.034Z,120
2017-07-27T06:13:11.314Z,120
2017-07-27T06:14:21.587Z,130
2017-07-27T06:15:31.539Z,145
2017-07-27T06:16:41.808Z,150
2017-07-27T06:17:52.078Z,150
2017-07-27T06:19:02.044Z,155
2017-07-27T06:20:11.691Z,150
2017-07-27T06:21:21.646Z,145
2017-07-27T06:22:31.604Z,140
2017-07-27T06:23:41.889Z,135
2017-07-27T06:24:52.166Z,135
2017-07-27T06:26:02.446Z,135
2017-07-27T06:27:12.403Z,140
2017-07-27T06:28:22.689Z,130
2017-07-27T06:29:32.978Z,135
2017-07-27T06:30:42.937Z,140
2017-07-27T06:31:53.216Z,140
2017-07-27T06:33:03.175Z,145
2017-07-27T06:34:12.816Z,155
2017-07-27T06:35:22.777Z,150
2017-07-27T06:36:33.050Z,150
2017-07-27T06:37:43.011Z,150
2017-07-27T06:38:53.294Z,150
2017-07-27T06:40:03.563Z,145
2017-07-27T06:41:13.522Z,130
2017-07-27T06:42:23.485Z,120
2017-07-27T06:43:33.757Z,110
2017-07-27T06:44:44.034Z,115
2017-07-27T06:45:53.988Z,110
2017-07-27T06:47:03.637Z,105
2017-07-27T06:48:13.597Z,105
2017-07-27T06:49:23.886Z,105
2017-07-27T06:50:34.195Z,105
2017-07-27T06:51:44.152Z,110
2017-07-27T06:52:56.420Z,125
2017-07-27T06:54:06.700Z,130
2017-07-27T06:55:16.972Z,120
2017-07-27T06:56:27.257Z,115
2017-07-27T06:57:37.212Z,120
2017-07-27T06:58:47.488Z,115
2017-07-27T06:59:57.817Z,125
2017-07-27T07:01:08.089Z,145
2017-07-27T07:02:18.379Z,165
2017-07-27T07:03:28.652Z,185
2017-07-27T07:04:38.927Z,195
2017-07-27T07:05:48.882Z,175
2017-07-27T07:06:58.857Z,175
2017-07-27T07:08:09.132Z,185
2017-07-27T07:09:19.088Z,185
2017-07-27T07:10:29.367Z,180
2017-07-27T07:11:39.323Z,185
2017-07-27T07:12:49.598Z,195
2017-07-27T07:13:59.557Z,210
2017-07-27T07:15:09.830Z,215
2017-07-27T07:16:20.104Z,210
2017-07-27T07:17:30.098Z,210
2017-07-27T07:18:40.395Z,205
2017-07-27T07:19:50.663Z,200
2017-07-27T07:21:00.619Z,185
2017-07-27T07:22:10.575Z,160
2017-07-27T07:23:20.848Z,125
2017-07-27T07:24:30.806Z,110
2017-07-27T07:25:41.079Z,115
2017-07-27T07:26:51.349Z,110
2017-07-27T07:28:00.998Z,115
2017-07-27T07:29:11.273Z,115
2017-07-27T07:30:21.545Z,115
2017-07-27T07:31:31.813Z,140
2017-07-27T07:32:42.105Z,180
2017-07-27T07:33:52.383Z,230
2017-07-27T07:35:02.708Z,240
2017-07-27T07:36:12.355Z,230
2017-07-27T07:37:22.652Z,210
2017-07-27T07:38:32.925Z,185
2017-07-27T07:39:43.199Z,170
2017-07-27T07:40:53.157Z,155
2017-07-27T07:42:03.432Z,145
2017-07-27T07:43:12.765Z,130
2017-07-27T07:44:22.722Z,130
2017-07-27T07:45:32.999Z,140
2017-07-27T07:46:42.962Z,135
2017-07-27T07:47:52.926Z,115
2017-07-27T07:49:03.201Z,85
2017-07-27T07:50:13.476Z,70
2017-07-27T07:51:23.750Z,70
2017-07-27T07:52:34.035Z,70
2017-07-27T07:53:44.321Z,70
2017-07-27T07:54:54.293Z,70
2017-07-27T07:56:04.252Z,85
2017-07-27T07:57:14.209Z,110
2017-07-27T07:58:24.483Z,110
2017-07-27T07:59:34.753Z,100
2017-07-27T08:00:44.719Z,105
2017-07-27T08:01:54.995Z,120
2017-07-27T08:03:04.957Z,145
2017-07-27T08:04:14.915Z,145
2017-07-27T08:05:24.874Z,135
2017-07-27T08:06:35.152Z,145
2017-07-27T08:07:45.425Z,155
2017-07-27T08:08:55.074Z,145
2017-07-27T08:10:05.033Z,140
2017-07-27T08:11:15.312Z,145
2017-07-27T08:12:25.283Z,155
2017-07-27T08:13:35.551Z,165
2017-07-27T08:14:45.825Z,180
2017-07-27T08:15:56.109Z,195
2017-07-27T08:17:06.385Z,210
2017-07-27T08:18:16.659Z,225
2017-07-27T08:19:26.948Z,240
2017-07-27T08:20:36.907Z,250
2017-07-27T08:21:46.872Z,245
2017-07-27T08:22:56.254Z,245
2017-07-27T08:24:06.544Z,250
2017-07-27T08:25:16.507Z,235
2017-07-27T08:26:26.782Z,230
2017-07-27T08:27:36.764Z,255
2017-07-27T08:28:46.725Z,275
2017-07-27T08:29:57.017Z,305
2017-07-27T08:31:07.300Z,355
2017-07-27T08:32:17.270Z,395
2017-07-27T08:33:27.562Z,430
2017-07-27T08:34:37.519Z,465
2017-07-27T08:35:47.794Z,475
2017-07-27T08:36:57.783Z,480
2017-07-27T08:38:07.741Z,480
2017-07-27T08:39:18.014Z,465
2017-07-27T08:40:28.294Z,435
2017-07-27T08:41:38.572Z,410
2017-07-27T08:42:48.848Z,400
2017-07-27T08:43:59.142Z,395
2017-07-27T08:45:09.433Z,385
2017-07-27T08:46:19.408Z,385
2017-07-27T08:47:29.060Z,380
2017-07-27T08:48:39.331Z,385
2017-07-27T08:49:49.291Z,395
2017-07-27T08:50:59.248Z,415
2017-07-27T08:52:08.898Z,385
2017-07-27T08:53:19.173Z,350
2017-07-27T08:54:29.447Z,340
2017-07-27T08:55:39.402Z,325
2017-07-27T08:56:49.369Z,310
2017-07-27T08:57:59.325Z,310
2017-07-27T08:59:09.286Z,330
2017-07-27T09:00:19.249Z,350
2017-07-27T09:01:29.520Z,360
2017-07-27T09:02:39.792Z,370
2017-07-27T09:03:50.069Z,425
2017-07-27T09:05:00.035Z,480
2017-07-27T09:06:09.993Z,525
2017-07-27T09:07:20.272Z,580
2017-07-27T09:08:30.548Z,635
2017-07-27T09:09:40.818Z,680
2017-07-27T09:10:51.091Z,710
2017-07-27T09:12:01.046Z,700
2017-07-27T09:13:11.004Z,675
2017-07-27T09:14:20.971Z,655
2017-07-27T09:15:30.942Z,625
2017-07-27T09:16:41.216Z,630
2017-07-27T09:17:51.489Z,645
2017-07-27T09:19:01.773Z,690
2017-07-27T09:20:11.734Z,735
2017-07-27T09:21:22.017Z,755
2017-07-27T09:22:31.974Z,735
2017-07-27T09:23:42.248Z,705
2017-07-27T09:24:52.521Z,705
2017-07-27T09:26:02.484Z,670
2017-07-27T09:27:12.768Z,665
2017-07-27T09:28:22.729Z,675
2017-07-27T09:29:33.004Z,630
2017-07-27T09:30:43.285Z,620
2017-07-27T09:31:53.575Z,615
2017-07-27T09:33:03.851Z,590
2017-07-27T09:34:13.818Z,550
2017-07-27T09:35:23.791Z,530
2017-07-27T09:36:34.076Z,530
2017-07-27T09:37:44.345Z,515
2017-07-27T09:38:54.306Z,515
2017-07-27T09:40:03.981Z,530
2017-07-27T09:41:14.265Z,530
2017-07-27T09:42:24.226Z,540
2017-07-27T09:43:34.505Z,535
2017-07-27T09:44:44.469Z,550
2017-07-27T09:45:54.433Z,565
2017-07-27T09:47:04.463Z,595
2017-07-27T09:48:14.433Z,595
2017-07-27T09:49:24.417Z,605
2017-07-27T09:50:34.699Z,630
2017-07-27T09:51:44.976Z,690
2017-07-27T09:52:54.941Z,745
2017-07-27T09:54:04.965Z,795
2017-07-27T09:55:15.244Z,795
2017-07-27T09:56:25.516Z,760
2017-07-27T09:57:35.478Z,725
2017-07-27T09:58:45.753Z,730
2017-07-27T09:59:55.722Z,740
2017-07-27T10:01:06.002Z,730
2017-07-27T10:02:15.964Z,730
2017-07-27T10:03:26.240Z,760
2017-07-27T10:04:36.211Z,775
2017-07-27T10:05:46.495Z,780
2017-07-27T10:06:56.774Z,800
2017-07-27T10:08:07.057Z,805
2017-07-27T10:09:17.333Z,780
2017-07-27T10:10:27.298Z,760
2017-07-27T10:11:37.574Z,760
2017-07-27T10:12:47.852Z,755
2017-07-27T10:13:58.156Z,765
2017-07-27T10:15:08.435Z,725
2017-07-27T10:16:18.402Z,670
2017-07-27T10:17:28.679Z,670
2017-07-27T10:18:38.961Z,645
2017-07-27T10:19:49.234Z,630
2017-07-27T10:20:59.196Z,585
2017-07-27T10:22:09.473Z,550
2017-07-27T10:23:19.437Z,505
2017-07-27T10:24:29.423Z,475
2017-07-27T10:25:39.388Z,430
2017-07-27T10:26:49.665Z,370
2017-07-27T10:27:59.948Z,315
2017-07-27T10:29:09.913Z,300
2017-07-27T10:30:20.194Z,325
2017-07-27T10:31:30.154Z,340
2017-07-27T10:32:40.115Z,345
2017-07-27T10:33:50.081Z,355
2017-07-27T10:35:00.355Z,380
2017-07-27T10:36:10.004Z,450
2017-07-27T10:37:20.289Z,505
2017-07-27T10:38:29.943Z,535
2017-07-27T10:39:40.236Z,545
2017-07-27T10:40:50.508Z,585
2017-07-27T10:42:00.491Z,610
2017-07-27T10:43:10.793Z,615
2017-07-27T10:44:20.760Z,605
2017-07-27T10:45:31.035Z,595
2017-07-27T10:46:40.680Z,585
2017-07-27T10:47:50.960Z,575
2017-07-27T10:49:01.236Z,570
2017-07-27T10:50:10.943Z,565
2017-07-27T10:51:21.220Z,550
2017-07-27T10:52:31.496Z,530
2017-07-27T10:53:41.145Z,510
2017-07-27T10:54:51.106Z,485
2017-07-27T10:56:01.384Z,485
2017-07-27T10:57:11.353Z,515
2017-07-27T10:58:21.326Z,550
2017-07-27T10:59:31.601Z,590
2017-07-27T11:00:41.872Z,615
2017-07-27T11:01:52.149Z,640
2017-07-27T11:03:02.117Z,660
2017-07-27T11:04:12.080Z,680
2017-07-27T11:05:22.045Z,705
2017-07-27T11:06:32.321Z,720
2017-07-27T11:07:41.965Z,735
2017-07-27T11:08:51.935Z,745
2017-07-27T11:10:02.210Z,745
2017-07-27T11:11:12.176Z,740
2017-07-27T11:12:22.454Z,725
2017-07-27T11:13:32.419Z,695
2017-07-27T11:14:42.700Z,660
2017-07-27T11:15:52.666Z,735
2017-07-27T11:17:02.632Z,835
2017-07-27T11:18:12.280Z,875
2017-07-27T11:19:22.246Z,905
2017-07-27T11:20:32.534Z,945
2017-07-27T11:21:42.811Z,985
2017-07-27T11:22:52.775Z,1015
2017-07-27T11:24:02.432Z,1045
2017-07-27T11:25:12.394Z,1075
2017-07-27T11:26:22.374Z,1055
2017-07-27T11:27:32.661Z,990
2017-07-27T11:28:42.936Z,970
2017-07-27T11:29:53.224Z,980
2017-07-27T11:31:03.519Z,1020
2017-07-27T11:32:13.795Z,1010
2017-07-27T11:33:24.073Z,960
2017-07-27T11:34:33.728Z,985
2017-07-27T11:35:43.690Z,995
2017-07-27T11:36:53.974Z,980
2017-07-27T11:38:04.261Z,1055
2017-07-27T11:39:16.547Z,1115
2017-07-27T11:40:26.516Z,1630
2017-07-27T11:41:36.482Z,955
2017-07-27T11:42:46.767Z,1055
2017-07-27T11:43:56.729Z,745
2017-07-27T11:45:07.035Z,585
2017-07-27T11:46:16.998Z,620
2017-07-27T11:47:26.966Z,600
2017-07-27T11:48:36.934Z,645
2017-07-27T11:49:47.214Z,905
2017-07-27T11:50:57.496Z,1925
2017-07-27T11:52:07.778Z,1610
2017-07-27T11:53:18.057Z,2065
2017-07-27T11:54:28.336Z,1310
2017-07-27T11:55:38.309Z,890
2017-07-27T11:56:47.996Z,810
2017-07-27T11:57:58.282Z,1200
2017-07-27T11:59:08.590Z,1175
2017-07-27T12:00:18.873Z,1455
2017-07-27T12:01:29.157Z,1625
2017-07-27T12:02:39.478Z,1730
2017-07-27T12:03:49.451Z,1700
2017-07-27T12:04:59.422Z,1630
2017-07-27T12:06:09.703Z,855
2017-07-27T12:07:19.354Z,1310
2017-07-27T12:08:29.643Z,1445
2017-07-27T12:09:39.918Z,1540
2017-07-27T12:10:50.208Z,1425
2017-07-27T12:12:00.483Z,1295
2017-07-27T12:13:10.781Z,855
2017-07-27T12:14:21.058Z,795
2017-07-27T12:15:30.712Z,920
2017-07-27T12:16:40.369Z,755
2017-07-27T12:17:50.647Z,695
2017-07-27T12:19:00.937Z,655
2017-07-27T12:20:10.910Z,640
2017-07-27T12:21:20.878Z,655
2017-07-27T12:22:31.167Z,750
2017-07-27T12:23:41.136Z,870
2017-07-27T12:24:51.417Z,910
2017-07-27T12:26:01.698Z,975
2017-07-27T12:27:11.350Z,1020
2017-07-27T12:28:21.643Z,985
2017-07-27T12:29:31.605Z,970
2017-07-27T12:30:41.891Z,920
2017-07-27T12:31:52.171Z,900
2017-07-27T12:33:01.839Z,915
2017-07-27T12:34:11.804Z,930
2017-07-27T12:35:21.768Z,960
2017-07-27T12:36:32.045Z,975
2017-07-27T12:37:42.328Z,970
2017-07-27T12:38:52.607Z,905
2017-07-27T12:40:02.263Z,800
2017-07-27T12:41:12.543Z,775
2017-07-27T12:42:22.508Z,670
2017-07-27T12:43:32.788Z,595
2017-07-27T12:44:43.069Z,555
2017-07-27T12:45:53.349Z,505
2017-07-27T12:47:03.631Z,420
2017-07-27T12:48:13.912Z,345
2017-07-27T12:49:24.203Z,310
2017-07-27T12:50:34.488Z,295
2017-07-27T12:51:44.771Z,270
2017-07-27T12:52:55.064Z,245
2017-07-27T12:54:05.340Z,210
2017-07-27T12:55:15.307Z,175
2017-07-27T12:56:25.589Z,160
2017-07-27T12:57:35.872Z,145
2017-07-27T12:58:46.154Z,145
2017-07-27T12:59:56.429Z,160
2017-07-27T13:01:06.084Z,180
2017-07-27T13:02:16.364Z,195
2017-07-27T13:03:26.647Z,210
2017-07-27T13:04:36.607Z,210
2017-07-27T13:05:46.911Z,225
2017-07-27T13:06:56.888Z,235
2017-07-27T13:08:06.851Z,245
2017-07-27T13:09:17.130Z,260
2017-07-27T13:10:27.093Z,270
2017-07-27T13:11:37.371Z,290
2017-07-27T13:12:47.539Z,305
2017-07-27T13:13:57.497Z,310
2017-07-27T13:15:07.142Z,315
2017-07-27T13:16:17.116Z,320
2017-07-27T13:17:27.395Z,335
2017-07-27T13:18:37.360Z,355
2017-07-27T13:19:47.321Z,390
2017-07-27T13:20:57.306Z,420
2017-07-27T13:22:07.265Z,465
2017-07-27T13:23:16.915Z,505
2017-07-27T13:24:27.196Z,560
2017-07-27T13:25:37.161Z,590
2017-07-27T13:26:47.438Z,565
2017-07-27T13:27:57.731Z,545
2017-07-27T13:29:08.016Z,535
2017-07-27T13:30:18.299Z,530
2017-07-27T13:31:28.261Z,530
2017-07-27T13:32:38.235Z,550
2017-07-27T13:33:48.513Z,560
2017-07-27T13:34:58.789Z,585
2017-07-27T13:36:08.753Z,585
2017-07-27T13:37:19.032Z,580
2017-07-27T13:38:29.312Z,570
2017-07-27T13:39:39.273Z,535
2017-07-27T13:40:49.230Z,505
2017-07-27T13:41:59.189Z,470
2017-07-27T13:43:08.835Z,440
2017-07-27T13:44:19.114Z,400
2017-07-27T13:45:29.394Z,370
2017-07-27T13:46:39.378Z,340
2017-07-27T13:47:49.655Z,315
2017-07-27T13:48:59.929Z,295
2017-07-27T13:50:10.208Z,285
2017-07-27T13:51:20.493Z,285
2017-07-27T13:52:30.766Z,285
2017-07-27T13:53:41.040Z,285
2017-07-27T13:54:51.322Z,290
2017-07-27T13:56:01.278Z,290
2017-07-27T13:57:10.929Z,295
2017-07-27T13:58:20.891Z,290
2017-07-27T13:59:31.173Z,290
2017-07-27T14:00:41.456Z,290
2017-07-27T14:01:51.743Z,290
2017-07-27T14:03:01.702Z,290
2017-07-27T14:04:11.348Z,290
2017-07-27T14:05:21.633Z,290
2017-07-27T14:06:31.594Z,285
2017-07-27T14:07:41.561Z,285
2017-07-27T14:08:51.526Z,280
2017-07-27T14:10:01.179Z,280
2017-07-27T14:11:11.456Z,280
2017-07-27T14:12:21.733Z,295
2017-07-27T14:13:31.689Z,310
2017-07-27T14:14:41.665Z,335
2017-07-27T14:15:51.940Z,365
2017-07-27T14:17:02.215Z,385
2017-07-27T14:18:12.501Z,375
2017-07-27T14:19:22.794Z,355
2017-07-27T14:20:32.757Z,340
2017-07-27T14:21:43.029Z,310
2017-07-27T14:22:53.321Z,280
2017-07-27T14:24:03.594Z,265
2017-07-27T14:25:13.874Z,250
2017-07-27T14:26:24.159Z,230
2017-07-27T14:27:34.431Z,215
2017-07-27T14:28:44.700Z,210
2017-07-27T14:29:54.975Z,210
2017-07-27T14:31:05.269Z,210
2017-07-27T14:32:15.222Z,215
2017-07-27T14:33:25.497Z,220
2017-07-27T14:34:35.778Z,220
2017-07-27T14:35:45.745Z,225
2017-07-27T14:36:55.706Z,220
2017-07-27T14:38:05.988Z,215
2017-07-27T14:39:16.268Z,210
2017-07-27T14:40:26.543Z,210
2017-07-27T14:41:36.816Z,210
2017-07-27T14:42:46.777Z,215
2017-07-27T14:43:56.430Z,220
2017-07-27T14:45:06.399Z,235
2017-07-27T14:46:16.679Z,260
2017-07-27T14:47:26.952Z,290
2017-07-27T14:48:37.232Z,325
2017-07-27T14:49:47.556Z,345
2017-07-27T14:50:57.838Z,355
2017-07-27T14:52:07.803Z,360
2017-07-27T14:53:18.083Z,365
2017-07-27T14:54:28.364Z,375
2017-07-27T14:55:38.641Z,385
2017-07-27T14:56:48.289Z,420
2017-07-27T14:57:58.565Z,460
2017-07-27T14:59:08.539Z,520
2017-07-27T15:00:18.815Z,540
2017-07-27T15:01:28.775Z,555
2017-07-27T15:02:39.055Z,555
2017-07-27T15:03:49.329Z,550
2017-07-27T15:04:59.602Z,530
2017-07-27T15:06:09.571Z,505
2017-07-27T15:07:19.534Z,470
2017-07-27T15:08:29.184Z,440
2017-07-27T15:09:39.455Z,390
2017-07-27T15:10:49.728Z,340
2017-07-27T15:11:59.692Z,305
2017-07-27T15:13:09.660Z,290
2017-07-27T15:14:19.937Z,285
2017-07-27T15:15:29.904Z,295
2017-07-27T15:16:39.553Z,305
2017-07-27T15:17:49.830Z,310
2017-07-27T15:18:59.785Z,330
2017-07-27T15:20:09.749Z,340
2017-07-27T15:21:20.048Z,350
2017-07-27T15:22:30.007Z,360
2017-07-27T15:23:40.308Z,360
2017-07-27T15:24:50.287Z,355
2017-07-27T15:26:00.565Z,340
2017-07-27T15:27:10.843Z,340
2017-07-27T15:28:20.811Z,340
2017-07-27T15:29:30.460Z,340
2017-07-27T15:30:40.733Z,360
2017-07-27T15:31:50.697Z,380
2017-07-27T15:33:00.972Z,400
2017-07-27T15:34:11.256Z,400
2017-07-27T15:35:21.237Z,400
2017-07-27T15:36:31.203Z,380
2017-07-27T15:37:41.475Z,365
2017-07-27T15:38:51.998Z,335
2017-07-27T15:40:01.959Z,300
2017-07-27T15:41:12.236Z,285
2017-07-27T15:42:22.195Z,270
2017-07-27T15:43:32.156Z,260
2017-07-27T15:44:42.439Z,250
2017-07-27T15:45:52.412Z,245
2017-07-27T15:47:02.375Z,245
2017-07-27T15:48:12.660Z,245
2017-07-27T15:49:22.945Z,245
2017-07-27T15:50:32.906Z,250
2017-07-27T15:51:43.194Z,255
2017-07-27T15:52:53.154Z,255
2017-07-27T15:54:03.445Z,260
2017-07-27T15:55:13.722Z,260
2017-07-27T15:56:23.683Z,260
2017-07-27T15:57:33.957Z,255
2017-07-27T15:58:44.234Z,255
2017-07-27T15:59:54.509Z,245
2017-07-27T16:01:04.472Z,245
2017-07-27T16:02:14.430Z,240
2017-07-27T16:03:24.700Z,230
2017-07-27T16:04:34.984Z,220
2017-07-27T16:05:44.955Z,215
2017-07-27T16:06:54.923Z,205
2017-07-27T16:08:05.196Z,195
2017-07-27T16:09:15.471Z,185
2017-07-27T16:10:25.747Z,175
2017-07-27T16:11:36.019Z,170
2017-07-27T16:12:46.304Z,165
2017-07-27T16:13:56.581Z,160
2017-07-27T16:15:06.877Z,155
2017-07-27T16:16:17.154Z,155
2017-07-27T16:17:27.127Z,155
2017-07-27T16:18:37.086Z,155
2017-07-27T16:19:47.373Z,155
2017-07-27T16:20:57.665Z,155
2017-07-27T16:22:07.629Z,160